El Campo, TX (77437)

10:32 AM CDT on May 24, 2015 (GMT -0500)
Wharton Regional | | Change Station
CLOSE
Current Station
Airport
Location: Wharton,
Elevation: 102 ft
Nearby Weather Stations

Elev 102 ft 29.25 °N, 96.15 °W | Updated 17 minutes ago

Clear
Clear
73 °F
Feels Like 73 °F
N
7
Wind Variable Wind from SE

Today
High -- | Low -- °F
--% Chance of Precip.
Yesterday
High -- | Low -- °F
Precip. -- in
6:28 AM 8:15 PM
Waxing Crescent, 40% visible
Pressure 29.96 in
Visibility 10.0 miles
Clouds Scattered Clouds 5500 ft
Scattered Clouds 6500 ft
Dew Point 71 °F
Humidity 93%
Rainfall 0.21 in
Snow Depth Not available.
UV 5 out of 12
Pollen .70 out of 12
Air Quality Not available.
Flu Activity Sporadic
METAR KARM 241515Z AUTO 14006KT 10SM SCT055 SCT065 23/22 A2996 RMK AO2 P0001 T02280216

More Conditions Fewer Conditions

Pressure 29.96 in
Visibility 10.0 miles
Clouds Scattered Clouds 5500 ft
Scattered Clouds 6500 ft
Dew Point 71 °F
Humidity 93%
Rainfall 0.21 in
Snow Depth Not available.
UV 5 out of 12
Pollen .70 out of 12
Air Quality Not available.
Flu Activity Sporadic
METAR KARM 241515Z AUTO 14006KT 10SM SCT055 SCT065 23/22 A2996 RMK AO2 P0001 T02280216

More Conditions Fewer Conditions

10-Day Weather Forecast

Almanac

Astronomy

May. 24, 2015 Rise Set
Actual Time
Civil Twilight
Nautical Twilight
Astronomical Twilight
Moon
Length of Visible Light
Length of Day
Tomorrow will be .
, % of the Moon is Illuminated

Today's Extremes

State Highs State Lows

Community

WunderPhotos

Upload Photos

1,823,770 photos uploaded!

WunderBlogs® & News

Nearby

Air Quality

  Air Quality AQ Index Pollutant
Not available.

Snow Depth

Station Depth Elevation

Earthquake Activity

City Distance Mag. Time & Date
Minimum magnitude displayed is 2.5.

Coastal Water Temperatures

Place Temperature

Stations

Nearby Weather Stations

Station Location Temp. Windchill Dew Point Humidity Wind Precip. Elev Updated Type